Coldfoot, Alaska
Current Conditions -  °F | °C
As of 8:58 AM on Tuesday 21 Oct 2014 (Local Time) from PAEI Reporting Station
Broken Clouds Broken Clouds  
Wind Chill: 24°   Ceiling: 20000
Heat Index: 24°   Visibility: 10mi
Dew Point: 20°   Wind: 0mph
Humidity: 84%   Direction: NA
Pressure: 29.38"   Gusts: NA
Location:  64.5037°N, 147.659°W
Report Text: PAEI 211658Z 00000KT 10SM FEW050 SCT120 BKN200 M04/M06 A2938 RMK AO2A SLP959 T10421065 $
Loading
Personal Weather Stations






























Interactive Weather Map
Tropical Storm Tracking
New forecast layout! Learn more

10-Day Weather Forecast

Advertisements
Track Severe Weather on mobile